createdAt,value
2019-05-06T00:00:08.615Z,11.27
2019-05-06T00:02:54.431Z,11.53
2019-05-06T00:05:43.550Z,11.00
2019-05-06T00:08:28.143Z,11.63
2019-05-06T00:11:14.208Z,10.57
2019-05-06T00:13:59.214Z,11.10
2019-05-06T00:16:45.124Z,10.83
2019-05-06T00:19:30.172Z,10.27
2019-05-06T00:22:15.093Z,10.37
2019-05-06T00:25:02.101Z,10.63
2019-05-06T00:28:06.143Z,10.90
2019-05-06T00:31:08.595Z,9.53
2019-05-06T00:33:44.302Z,10.40
2019-05-06T00:36:29.814Z,9.80
2019-05-06T00:39:25.503Z,8.90
2019-05-06T00:42:14.812Z,9.60
2019-05-06T00:44:59.562Z,9.70
2019-05-06T00:47:44.631Z,9.47
2019-05-06T00:50:29.845Z,9.40
2019-05-06T00:53:16.813Z,9.13
2019-05-06T00:56:01.729Z,9.47
2019-05-06T00:58:46.591Z,9.20
2019-05-06T01:01:34.210Z,9.60
2019-05-06T01:04:19.982Z,9.10
2019-05-06T01:07:05.393Z,9.40
2019-05-06T01:09:50.841Z,9.33
2019-05-06T01:12:38.046Z,8.80
2019-05-06T01:15:26.435Z,8.73
2019-05-06T01:18:13.653Z,9.30
2019-05-06T01:21:10.040Z,9.60
2019-05-06T01:23:55.498Z,9.77
2019-05-06T01:26:40.769Z,8.83
2019-05-06T01:29:26.192Z,9.57
2019-05-06T01:32:11.367Z,8.83
2019-05-06T01:34:56.230Z,9.83
2019-05-06T01:37:44.146Z,9.90
2019-05-06T01:40:31.134Z,9.27
2019-05-06T01:43:18.303Z,9.17
2019-05-06T01:46:04.699Z,9.47
2019-05-06T01:48:49.440Z,9.77
2019-05-06T01:51:35.016Z,9.13
2019-05-06T01:54:20.265Z,8.90
2019-05-06T01:57:07.165Z,9.33
2019-05-06T01:59:53.917Z,8.50
2019-05-06T02:02:39.584Z,9.13
2019-05-06T02:05:24.890Z,8.90
2019-05-06T02:08:10.266Z,9.37
2019-05-06T02:10:55.567Z,9.07
2019-05-06T02:13:40.388Z,9.67
2019-05-06T02:16:25.746Z,8.60
2019-05-06T02:19:11.239Z,9.77
2019-05-06T02:22:00.525Z,8.40
2019-05-06T02:24:49.940Z,9.50
2019-05-06T02:27:35.192Z,9.53
2019-05-06T02:30:25.195Z,10.20
2019-05-06T02:33:11.300Z,9.90
2019-05-06T02:36:01.089Z,9.30
2019-05-06T02:38:51.087Z,9.93
2019-05-06T02:41:33.895Z,10.20
2019-05-06T02:44:23.572Z,9.27
2019-05-06T02:47:09.445Z,9.23
2019-05-06T02:49:56.394Z,9.43
2019-05-06T02:52:44.044Z,10.37
2019-05-06T02:55:32.152Z,10.37
2019-05-06T02:58:15.327Z,10.27
2019-05-06T03:01:03.539Z,10.90
2019-05-06T03:03:48.691Z,10.97
2019-05-06T03:06:33.995Z,11.23
2019-05-06T03:09:18.887Z,10.40
2019-05-06T03:12:04.062Z,10.67
2019-05-06T03:14:48.991Z,10.00
2019-05-06T03:17:34.153Z,11.50
2019-05-06T03:20:57.494Z,10.80
2019-05-06T03:23:44.822Z,11.30
2019-05-06T03:26:29.568Z,11.47
2019-05-06T03:29:14.421Z,10.90
2019-05-06T03:31:59.821Z,11.93
2019-05-06T03:35:00.765Z,12.77
2019-05-06T03:37:33.449Z,11.53
2019-05-06T03:40:18.915Z,11.43
2019-05-06T03:43:03.962Z,12.03
2019-05-06T03:45:53.485Z,11.17
2019-05-06T03:48:39.646Z,11.60
2019-05-06T03:51:24.600Z,10.90
2019-05-06T03:54:12.860Z,11.10
2019-05-06T03:56:58.001Z,10.80
2019-05-06T03:59:43.817Z,11.60
2019-05-06T04:02:29.440Z,11.47
2019-05-06T04:05:14.686Z,11.67
2019-05-06T04:08:03.586Z,11.10
2019-05-06T04:10:47.242Z,11.00
2019-05-06T04:13:33.448Z,10.90
2019-05-06T04:16:22.800Z,11.47
2019-05-06T04:19:13.014Z,11.47
2019-05-06T04:22:13.786Z,11.33
2019-05-06T04:25:04.043Z,10.97
2019-05-06T04:27:53.948Z,11.33
2019-05-06T04:30:42.634Z,10.23
2019-05-06T04:33:26.585Z,10.97
2019-05-06T04:36:13.172Z,11.23
2019-05-06T04:39:03.902Z,10.73
2019-05-06T04:41:46.843Z,10.80
2019-05-06T04:44:33.069Z,10.63
2019-05-06T04:47:18.648Z,10.63
2019-05-06T04:50:06.716Z,10.07
2019-05-06T04:53:05.163Z,9.90
2019-05-06T04:55:53.625Z,10.20
2019-05-06T04:58:37.961Z,10.10
2019-05-06T05:01:23.471Z,9.97
2019-05-06T05:04:22.743Z,9.43
2019-05-06T05:06:56.026Z,8.97
2019-05-06T05:09:43.006Z,8.93
2019-05-06T05:12:30.205Z,10.07
2019-05-06T05:15:32.595Z,9.50
2019-05-06T05:18:28.616Z,9.80
2019-05-06T05:21:14.100Z,9.67
2019-05-06T05:23:59.474Z,10.60
2019-05-06T05:26:47.076Z,10.20
2019-05-06T05:29:32.517Z,10.37
2019-05-06T05:32:18.160Z,10.17
2019-05-06T05:35:04.719Z,10.90
2019-05-06T05:37:52.791Z,10.50
2019-05-06T05:40:37.502Z,10.70
2019-05-06T05:43:24.681Z,9.07
2019-05-06T05:46:09.719Z,10.50
2019-05-06T05:48:59.474Z,10.37
2019-05-06T05:51:44.609Z,10.30
2019-05-06T05:54:30.159Z,10.83
2019-05-06T05:57:15.226Z,9.40
2019-05-06T06:00:00.376Z,9.83
2019-05-06T06:02:45.365Z,10.17
2019-05-06T06:05:32.495Z,10.33
2019-05-06T06:08:17.855Z,10.03
2019-05-06T06:11:04.755Z,12.10
2019-05-06T06:13:52.176Z,9.63
2019-05-06T06:16:56.096Z,10.30
2019-05-06T06:19:53.388Z,9.50
2019-05-06T06:22:38.884Z,10.13
2019-05-06T06:25:24.266Z,9.03
2019-05-06T06:28:09.375Z,9.70
2019-05-06T06:30:56.641Z,10.50
2019-05-06T06:33:42.856Z,9.80
2019-05-06T06:36:32.980Z,10.23
2019-05-06T06:39:22.923Z,9.87
2019-05-06T06:42:08.785Z,10.40
2019-05-06T06:44:53.950Z,10.63
2019-05-06T06:47:39.729Z,10.27
2019-05-06T06:50:24.638Z,9.97
2019-05-06T06:53:11.930Z,10.40
2019-05-06T06:56:15.274Z,10.23
2019-05-06T06:59:17.448Z,10.40
2019-05-06T07:02:23.036Z,10.83
2019-05-06T07:05:27.120Z,10.33
2019-05-06T07:08:03.808Z,10.53
2019-05-06T07:10:49.107Z,10.47
2019-05-06T07:13:35.476Z,11.03
2019-05-06T07:16:20.892Z,10.53
2019-05-06T07:19:07.314Z,10.80
2019-05-06T07:21:54.009Z,10.87
2019-05-06T07:24:38.952Z,10.60
2019-05-06T07:27:25.714Z,10.13
2019-05-06T07:30:12.419Z,9.50
2019-05-06T07:33:00.442Z,9.53
2019-05-06T07:35:44.666Z,9.97
2019-05-06T07:38:29.274Z,10.80
2019-05-06T07:41:16.149Z,10.30
2019-05-06T07:44:08.570Z,9.70
2019-05-06T07:46:55.100Z,9.73
2019-05-06T07:49:40.265Z,10.03
2019-05-06T07:52:25.674Z,9.90
2019-05-06T07:55:11.983Z,10.03
2019-05-06T07:57:57.500Z,9.73
2019-05-06T08:00:42.420Z,9.47
2019-05-06T08:03:27.685Z,9.23
2019-05-06T08:06:13.173Z,9.20
2019-05-06T08:08:59.019Z,8.63
2019-05-06T08:11:43.945Z,8.87
2019-05-06T08:14:42.975Z,9.23
2019-05-06T08:17:30.242Z,8.67
2019-05-06T08:20:18.139Z,8.50
2019-05-06T08:23:22.081Z,8.30
2019-05-06T08:26:12.793Z,9.40
2019-05-06T08:28:54.041Z,8.60
2019-05-06T08:31:39.012Z,8.10
2019-05-06T08:34:24.605Z,8.30
2019-05-06T08:37:24.794Z,7.90
2019-05-06T08:40:11.928Z,7.57
2019-05-06T08:42:57.670Z,7.77
2019-05-06T08:45:42.855Z,7.07
2019-05-06T08:48:27.723Z,7.57
2019-05-06T08:51:14.508Z,6.80
2019-05-06T08:54:03.191Z,7.63
2019-05-06T08:56:48.475Z,7.30
2019-05-06T08:59:33.858Z,6.80
2019-05-06T09:02:22.742Z,7.40
2019-05-06T09:05:07.421Z,7.40
2019-05-06T09:07:52.638Z,6.60
2019-05-06T09:10:37.480Z,6.43
2019-05-06T09:13:23.127Z,7.33
2019-05-06T09:16:08.437Z,6.60
2019-05-06T09:18:53.910Z,6.87
2019-05-06T09:21:38.537Z,6.90
2019-05-06T09:24:23.739Z,6.77
2019-05-06T09:27:12.281Z,6.70
2019-05-06T09:29:59.643Z,7.10
2019-05-06T09:32:44.861Z,6.83
2019-05-06T09:35:29.773Z,7.20
2019-05-06T09:38:15.041Z,6.57
2019-05-06T09:40:59.870Z,6.00
2019-05-06T09:43:44.703Z,6.40
2019-05-06T09:46:32.094Z,6.27
2019-05-06T09:49:18.587Z,7.23
2019-05-06T09:52:04.163Z,7.07
2019-05-06T09:54:53.510Z,6.87
2019-05-06T09:57:58.430Z,6.80
2019-05-06T10:00:45.033Z,5.90
2019-05-06T10:03:32.135Z,6.00
2019-05-06T10:06:17.396Z,6.43
2019-05-06T10:09:08.009Z,6.50
2019-05-06T10:11:52.808Z,6.87
2019-05-06T10:14:40.168Z,6.63
2019-05-06T10:17:25.102Z,6.60
2019-05-06T10:20:12.429Z,6.90
2019-05-06T10:22:57.580Z,6.83
2019-05-06T10:25:43.850Z,6.70
2019-05-06T10:28:36.758Z,6.77
2019-05-06T10:31:21.945Z,7.03
2019-05-06T10:34:13.299Z,6.43
2019-05-06T10:37:23.144Z,6.50
2019-05-06T10:40:17.837Z,6.77
2019-05-06T10:43:24.958Z,7.13
2019-05-06T10:46:09.900Z,6.80
2019-05-06T10:48:54.632Z,6.60
2019-05-06T10:51:42.752Z,6.77
2019-05-06T10:54:28.223Z,5.97
2019-05-06T10:57:23.787Z,6.30
2019-05-06T11:00:09.039Z,6.20
2019-05-06T11:03:07.910Z,6.40
2019-05-06T11:05:53.700Z,6.60
2019-05-06T11:08:39.033Z,6.27
2019-05-06T11:11:32.751Z,6.43
2019-05-06T11:14:12.692Z,6.80
2019-05-06T11:16:59.760Z,7.07
2019-05-06T11:19:44.719Z,6.50
2019-05-06T11:22:32.499Z,7.07
2019-05-06T11:25:18.420Z,7.73
2019-05-06T11:28:05.250Z,7.57
2019-05-06T11:30:57.678Z,7.60
2019-05-06T11:33:50.188Z,8.40
2019-05-06T11:36:55.414Z,7.30
2019-05-06T11:39:42.909Z,6.70
2019-05-06T11:42:32.452Z,6.30
2019-05-06T11:45:16.238Z,7.33
2019-05-06T11:48:01.435Z,6.80
2019-05-06T11:50:48.987Z,7.23
2019-05-06T11:53:34.238Z,6.80
2019-05-06T11:56:18.903Z,6.93
2019-05-06T11:59:04.053Z,6.47
2019-05-06T12:01:53.397Z,7.20
2019-05-06T12:04:38.970Z,7.10
2019-05-06T12:07:24.864Z,7.13
2019-05-06T12:10:10.500Z,8.10
2019-05-06T12:12:57.858Z,7.70
2019-05-06T12:15:44.728Z,7.80
2019-05-06T12:18:30.283Z,8.30
2019-05-06T12:21:19.074Z,7.43
2019-05-06T12:24:03.081Z,7.20
2019-05-06T12:26:48.123Z,7.20
2019-05-06T12:29:33.173Z,7.00
2019-05-06T12:32:23.235Z,7.63
2019-05-06T12:35:08.164Z,7.33
2019-05-06T12:37:55.442Z,6.60
2019-05-06T12:40:42.726Z,7.90
2019-05-06T12:43:33.050Z,7.10
2019-05-06T12:46:22.385Z,7.43
2019-05-06T12:49:07.384Z,6.83
2019-05-06T12:51:53.758Z,6.57
2019-05-06T12:54:39.098Z,6.53
2019-05-06T12:57:24.371Z,6.50
2019-05-06T13:00:12.984Z,7.13
2019-05-06T13:02:58.019Z,6.90
2019-05-06T13:05:43.052Z,6.80
2019-05-06T13:08:47.978Z,7.10
2019-05-06T13:11:15.169Z,6.80
2019-05-06T13:14:00.789Z,7.20
2019-05-06T13:16:47.008Z,6.73
2019-05-06T13:19:32.341Z,6.50
2019-05-06T13:22:25.622Z,6.00
2019-05-06T13:25:13.544Z,6.30
2019-05-06T13:27:57.438Z,5.50
2019-05-06T13:30:43.392Z,5.50
2019-05-06T13:33:34.134Z,4.60
2019-05-06T13:36:25.877Z,4.37
2019-05-06T13:39:14.886Z,5.20
2019-05-06T13:41:57.680Z,4.90
2019-05-06T13:44:43.929Z,5.80
2019-05-06T13:47:45.640Z,5.37
2019-05-06T13:50:34.236Z,5.87
2019-05-06T13:53:20.089Z,5.58
2019-05-06T13:56:06.473Z,5.50
2019-05-06T13:58:52.603Z,6.60
2019-05-06T14:01:43.947Z,5.60
2019-05-06T14:04:29.319Z,6.17
2019-05-06T14:07:14.624Z,5.60
2019-05-06T14:09:59.879Z,5.72
2019-05-06T14:12:45.115Z,6.03
2019-05-06T14:15:32.384Z,5.93
2019-05-06T14:18:16.921Z,6.63
2019-05-06T14:21:02.942Z,6.77
2019-05-06T14:23:48.767Z,6.50
2019-05-06T14:26:38.717Z,6.70
2019-05-06T14:29:25.370Z,6.40
2019-05-06T14:32:12.280Z,6.83
2019-05-06T14:34:57.484Z,6.53
2019-05-06T14:37:42.947Z,6.10
2019-05-06T14:40:28.673Z,7.33
2019-05-06T14:43:13.533Z,6.93
2019-05-06T14:45:58.558Z,7.20
2019-05-06T14:48:43.825Z,7.23
2019-05-06T14:51:29.039Z,6.27
2019-05-06T14:54:14.869Z,6.30
2019-05-06T14:57:02.646Z,7.00
2019-05-06T14:59:51.087Z,7.67
2019-05-06T15:02:35.338Z,7.50
2019-05-06T15:05:22.648Z,8.30
2019-05-06T15:08:07.469Z,8.83
2019-05-06T15:10:52.578Z,9.03
2019-05-06T15:13:37.428Z,10.27
2019-05-06T15:16:23.418Z,10.33
2019-05-06T15:19:08.783Z,10.57
2019-05-06T15:21:54.142Z,10.47
2019-05-06T15:24:39.512Z,11.97
2019-05-06T15:27:24.739Z,12.70
2019-05-06T15:30:12.408Z,13.23
2019-05-06T15:32:57.660Z,13.87
2019-05-06T15:35:44.583Z,13.00
2019-05-06T15:38:30.471Z,12.97
2019-05-06T15:41:15.883Z,12.93
2019-05-06T15:44:03.054Z,13.13
2019-05-06T15:46:48.036Z,13.00
2019-05-06T15:49:34.728Z,12.40
2019-05-06T15:52:19.523Z,12.93
2019-05-06T15:55:05.883Z,13.03
2019-05-06T15:57:52.656Z,12.70
2019-05-06T16:00:38.146Z,12.40
2019-05-06T16:03:23.507Z,11.10
2019-05-06T16:06:08.596Z,10.90
2019-05-06T16:08:53.738Z,12.23
2019-05-06T16:11:38.775Z,11.40
2019-05-06T16:14:24.113Z,10.70
2019-05-06T16:17:09.093Z,11.07
2019-05-06T16:19:54.197Z,10.63
2019-05-06T16:22:39.427Z,11.05
2019-05-06T16:25:25.424Z,11.90
2019-05-06T16:28:12.798Z,12.93
2019-05-06T16:30:57.678Z,13.33
2019-05-06T16:33:43.192Z,13.47
2019-05-06T16:36:28.586Z,13.00
2019-05-06T16:39:14.448Z,13.53
2019-05-06T16:41:59.667Z,12.90
2019-05-06T16:44:46.332Z,13.70
2019-05-06T16:47:38.069Z,13.10
2019-05-06T16:50:23.554Z,12.43
2019-05-06T16:53:08.940Z,12.63
2019-05-06T16:56:04.946Z,13.30
2019-05-06T16:59:03.643Z,13.27
2019-05-06T17:01:49.142Z,13.40
2019-05-06T17:04:36.338Z,13.07
2019-05-06T17:07:22.191Z,13.27
2019-05-06T17:10:07.338Z,12.73
2019-05-06T17:12:53.717Z,11.87
2019-05-06T17:15:38.927Z,12.93
2019-05-06T17:18:24.034Z,13.20
2019-05-06T17:21:09.703Z,13.67
2019-05-06T17:23:54.888Z,13.33
2019-05-06T17:26:42.433Z,13.00
2019-05-06T17:29:46.582Z,12.50
2019-05-06T17:32:33.487Z,11.50
2019-05-06T17:35:19.951Z,11.70
2019-05-06T17:38:07.224Z,12.73
2019-05-06T17:40:52.391Z,12.07
2019-05-06T17:43:41.073Z,11.17
2019-05-06T17:46:32.901Z,10.70
2019-05-06T17:49:22.992Z,12.03
2019-05-06T17:52:08.550Z,11.60
2019-05-06T17:54:53.481Z,11.03
2019-05-06T17:57:38.785Z,10.70
2019-05-06T18:00:24.757Z,10.03
2019-05-06T18:03:10.290Z,9.37
2019-05-06T18:05:55.344Z,10.43
2019-05-06T18:08:43.035Z,9.67
2019-05-06T18:11:27.648Z,9.57
2019-05-06T18:14:13.094Z,10.30
2019-05-06T18:16:58.587Z,10.07
2019-05-06T18:19:43.540Z,10.30
2019-05-06T18:22:28.397Z,9.73
2019-05-06T18:25:13.981Z,11.13
2019-05-06T18:27:59.176Z,11.00
2019-05-06T18:30:45.873Z,11.40
2019-05-06T18:33:32.590Z,10.67
2019-05-06T18:36:18.151Z,11.30
2019-05-06T18:39:05.587Z,11.40
2019-05-06T18:41:52.878Z,10.73
2019-05-06T18:44:37.785Z,11.17
2019-05-06T18:47:22.963Z,10.37
2019-05-06T18:50:09.033Z,11.40
2019-05-06T18:52:54.258Z,11.50
2019-05-06T18:55:41.718Z,12.67
2019-05-06T18:58:28.201Z,11.83
2019-05-06T19:01:13.367Z,11.50
2019-05-06T19:04:00.138Z,11.33
2019-05-06T19:06:45.174Z,12.63
2019-05-06T19:09:34.731Z,12.50
2019-05-06T19:12:30.306Z,12.00
2019-05-06T19:15:07.470Z,11.80
2019-05-06T19:17:52.714Z,10.73
2019-05-06T19:20:37.990Z,11.63
2019-05-06T19:23:23.317Z,11.17
2019-05-06T19:26:08.568Z,11.27
2019-05-06T19:28:53.896Z,11.07
2019-05-06T19:31:42.516Z,11.60
2019-05-06T19:34:28.642Z,10.70
2019-05-06T19:37:13.797Z,11.00
2019-05-06T19:40:02.693Z,11.17
2019-05-06T19:42:50.111Z,10.87
2019-05-06T19:45:35.385Z,10.53
2019-05-06T19:48:22.205Z,10.30
2019-05-06T19:51:10.467Z,10.03
2019-05-06T19:53:55.387Z,10.23
2019-05-06T19:56:42.264Z,10.10
2019-05-06T19:59:28.501Z,10.40
2019-05-06T20:02:13.727Z,10.23
2019-05-06T20:05:19.682Z,9.87
2019-05-06T20:08:12.366Z,11.00
2019-05-06T20:11:02.231Z,9.83
2019-05-06T20:13:47.533Z,10.47
2019-05-06T20:16:33.319Z,11.23
2019-05-06T20:19:29.776Z,10.73
2019-05-06T20:22:06.547Z,11.43
2019-05-06T20:24:52.138Z,9.93
2019-05-06T20:27:37.691Z,11.20
2019-05-06T20:30:22.832Z,10.50
2019-05-06T20:33:07.850Z,11.67
2019-05-06T20:35:52.831Z,10.70
2019-05-06T20:38:38.031Z,11.20
2019-05-06T20:41:23.671Z,11.80
2019-05-06T20:44:09.055Z,11.57
2019-05-06T20:46:54.033Z,11.93
2019-05-06T20:49:39.004Z,10.57
2019-05-06T20:52:25.384Z,10.70
2019-05-06T20:55:15.950Z,11.03
2019-05-06T20:57:57.600Z,10.57
2019-05-06T21:00:43.239Z,10.37
2019-05-06T21:03:28.506Z,10.60
2019-05-06T21:06:13.709Z,10.50
2019-05-06T21:08:59.113Z,10.57
2019-05-06T21:11:43.884Z,10.53
2019-05-06T21:14:29.652Z,10.03
2019-05-06T21:17:14.886Z,9.73
2019-05-06T21:20:02.800Z,9.67
2019-05-06T21:22:52.628Z,10.00
2019-05-06T21:25:37.297Z,10.03
2019-05-06T21:28:23.764Z,10.40
2019-05-06T21:31:15.617Z,10.60
2019-05-06T21:34:00.689Z,10.67
2019-05-06T21:36:45.911Z,10.57
2019-05-06T21:39:32.802Z,10.17
2019-05-06T21:42:18.228Z,10.40
2019-05-06T21:45:05.012Z,10.63
2019-05-06T21:47:52.838Z,10.87
2019-05-06T21:50:39.099Z,11.20
2019-05-06T21:53:24.095Z,11.10
2019-05-06T21:56:12.948Z,13.10
2019-05-06T21:58:57.786Z,13.13
2019-05-06T22:01:44.396Z,13.60
2019-05-06T22:04:29.651Z,13.50
2019-05-06T22:07:14.819Z,14.13
2019-05-06T22:10:00.190Z,14.47
2019-05-06T22:12:45.250Z,13.70
2019-05-06T22:15:32.463Z,15.27
2019-05-06T22:18:18.610Z,15.27
2019-05-06T22:21:05.945Z,14.93
2019-05-06T22:23:53.785Z,14.67
2019-05-06T22:26:38.806Z,15.67
2019-05-06T22:29:24.455Z,15.80
2019-05-06T22:32:09.574Z,16.57
2019-05-06T22:34:55.101Z,16.90
2019-05-06T22:37:42.238Z,16.80
2019-05-06T22:40:27.351Z,17.07
2019-05-06T22:43:12.386Z,16.37
2019-05-06T22:45:57.507Z,17.17
2019-05-06T22:48:43.468Z,17.43
2019-05-06T22:51:28.795Z,18.07
2019-05-06T22:54:14.244Z,18.47
2019-05-06T22:56:59.269Z,18.57
2019-05-06T22:59:44.056Z,19.13
2019-05-06T23:02:36.442Z,18.83
2019-05-06T23:05:23.176Z,18.97
2019-05-06T23:08:08.178Z,18.83
2019-05-06T23:10:53.588Z,19.53
2019-05-06T23:13:38.386Z,19.60
2019-05-06T23:16:24.989Z,19.97
2019-05-06T23:19:09.903Z,19.53
2019-05-06T23:21:55.001Z,18.43
2019-05-06T23:24:40.218Z,19.10
2019-05-06T23:27:25.104Z,19.90
2019-05-06T23:30:12.569Z,21.33
2019-05-06T23:32:57.168Z,21.87
2019-05-06T23:35:43.948Z,21.80
2019-05-06T23:39:07.184Z,22.03
2019-05-06T23:42:29.685Z,21.27
2019-05-06T23:45:54.370Z,21.20
2019-05-06T23:49:16.954Z,21.97
2019-05-06T23:52:39.770Z,22.87
2019-05-06T23:56:03.023Z,24.17
2019-05-06T23:58:48.761Z,24.57
